sensor_id;sensor_type;location;lat;lon;timestamp;P1;durP1;ratioP1;P2;durP2;ratioP2
3401;SDS011;1714;49.756;8.610;2022-07-12T00:02:48;1.95;;;0.98;;
3401;SDS011;1714;49.756;8.610;2022-07-12T00:12:50;1.10;;;1.00;;
3401;SDS011;1714;49.756;8.610;2022-07-12T00:22:52;1.38;;;1.10;;
3401;SDS011;1714;49.756;8.610;2022-07-12T00:32:54;3.53;;;1.27;;
3401;SDS011;1714;49.756;8.610;2022-07-12T00:42:56;0.90;;;0.80;;
3401;SDS011;1714;49.756;8.610;2022-07-12T00:52:57;1.67;;;1.15;;
3401;SDS011;1714;49.756;8.610;2022-07-12T01:03:00;1.45;;;0.90;;
3401;SDS011;1714;49.756;8.610;2022-07-12T01:13:06;1.33;;;0.93;;
3401;SDS011;1714;49.756;8.610;2022-07-12T01:23:08;2.00;;;1.30;;
3401;SDS011;1714;49.756;8.610;2022-07-12T01:33:10;2.05;;;1.45;;
3401;SDS011;1714;49.756;8.610;2022-07-12T01:43:12;1.20;;;1.10;;
3401;SDS011;1714;49.756;8.610;2022-07-12T01:53:14;2.08;;;1.35;;
3401;SDS011;1714;49.756;8.610;2022-07-12T02:03:17;3.67;;;1.48;;
3401;SDS011;1714;49.756;8.610;2022-07-12T02:13:19;1.75;;;1.20;;
3401;SDS011;1714;49.756;8.610;2022-07-12T02:23:24;3.50;;;1.10;;
3401;SDS011;1714;49.756;8.610;2022-07-12T02:33:26;4.15;;;1.27;;
3401;SDS011;1714;49.756;8.610;2022-07-12T02:43:28;2.05;;;1.30;;
3401;SDS011;1714;49.756;8.610;2022-07-12T02:53:31;3.00;;;1.23;;
3401;SDS011;1714;49.756;8.610;2022-07-12T03:03:39;4.03;;;1.00;;
3401;SDS011;1714;49.756;8.610;2022-07-12T03:13:41;1.88;;;1.20;;
3401;SDS011;1714;49.756;8.610;2022-07-12T03:23:43;3.08;;;1.60;;
3401;SDS011;1714;49.756;8.610;2022-07-12T03:33:46;1.38;;;1.15;;
3401;SDS011;1714;49.756;8.610;2022-07-12T03:43:47;1.50;;;0.93;;
3401;SDS011;1714;49.756;8.610;2022-07-12T03:53:49;1.95;;;1.42;;
3401;SDS011;1714;49.756;8.610;2022-07-12T04:03:51;2.28;;;1.30;;
3401;SDS011;1714;49.756;8.610;2022-07-12T04:13:55;1.65;;;1.20;;
3401;SDS011;1714;49.756;8.610;2022-07-12T04:23:58;3.50;;;1.95;;
3401;SDS011;1714;49.756;8.610;2022-07-12T04:33:59;2.25;;;1.75;;
3401;SDS011;1714;49.756;8.610;2022-07-12T04:44:04;1.42;;;1.33;;
3401;SDS011;1714;49.756;8.610;2022-07-12T04:54:07;2.05;;;1.85;;
3401;SDS011;1714;49.756;8.610;2022-07-12T05:04:09;3.45;;;1.73;;
3401;SDS011;1714;49.756;8.610;2022-07-12T05:14:11;2.03;;;1.60;;
3401;SDS011;1714;49.756;8.610;2022-07-12T05:24:13;3.08;;;1.50;;
3401;SDS011;1714;49.756;8.610;2022-07-12T05:34:14;2.60;;;1.40;;
3401;SDS011;1714;49.756;8.610;2022-07-12T05:44:18;2.35;;;1.50;;
3401;SDS011;1714;49.756;8.610;2022-07-12T05:54:20;4.65;;;1.63;;
3401;SDS011;1714;49.756;8.610;2022-07-12T06:04:22;2.67;;;1.92;;
3401;SDS011;1714;49.756;8.610;2022-07-12T06:14:24;2.10;;;1.83;;
3401;SDS011;1714;49.756;8.610;2022-07-12T06:24:25;5.95;;;2.53;;
3401;SDS011;1714;49.756;8.610;2022-07-12T06:34:27;2.58;;;2.30;;
3401;SDS011;1714;49.756;8.610;2022-07-12T06:44:31;5.40;;;2.22;;
3401;SDS011;1714;49.756;8.610;2022-07-12T06:54:34;2.13;;;1.92;;
3401;SDS011;1714;49.756;8.610;2022-07-12T07:04:35;2.70;;;2.13;;
3401;SDS011;1714;49.756;8.610;2022-07-12T07:14:38;2.78;;;1.30;;
3401;SDS011;1714;49.756;8.610;2022-07-12T07:24:40;4.70;;;1.20;;
3401;SDS011;1714;49.756;8.610;2022-07-12T07:34:44;2.80;;;1.73;;
3401;SDS011;1714;49.756;8.610;2022-07-12T07:44:46;1.42;;;1.20;;
3401;SDS011;1714;49.756;8.610;2022-07-12T07:55:09;1.65;;;1.20;;
3401;SDS011;1714;49.756;8.610;2022-07-12T08:05:10;5.18;;;1.02;;
3401;SDS011;1714;49.756;8.610;2022-07-12T08:15:13;1.02;;;0.93;;
3401;SDS011;1714;49.756;8.610;2022-07-12T08:25:15;1.05;;;0.90;;
3401;SDS011;1714;49.756;8.610;2022-07-12T08:35:20;1.15;;;0.80;;
3401;SDS011;1714;49.756;8.610;2022-07-12T08:45:22;0.70;;;0.50;;
3401;SDS011;1714;49.756;8.610;2022-07-12T08:55:28;1.35;;;0.60;;
3401;SDS011;1714;49.756;8.610;2022-07-12T09:05:32;0.70;;;0.55;;
3401;SDS011;1714;49.756;8.610;2022-07-12T09:15:34;0.47;;;0.40;;
3401;SDS011;1714;49.756;8.610;2022-07-12T09:25:36;0.60;;;0.60;;
3401;SDS011;1714;49.756;8.610;2022-07-12T09:35:39;0.55;;;0.55;;
3401;SDS011;1714;49.756;8.610;2022-07-12T09:46:15;0.47;;;0.38;;
3401;SDS011;1714;49.756;8.610;2022-07-12T09:56:30;1.17;;;0.93;;
3401;SDS011;1714;49.756;8.610;2022-07-12T10:06:38;1.30;;;0.50;;
3401;SDS011;1714;49.756;8.610;2022-07-12T10:16:44;1.08;;;0.50;;
3401;SDS011;1714;49.756;8.610;2022-07-12T10:26:52;0.95;;;0.40;;
3401;SDS011;1714;49.756;8.610;2022-07-12T10:47:15;0.55;;;0.50;;
3401;SDS011;1714;49.756;8.610;2022-07-12T10:57:39;0.40;;;0.40;;
3401;SDS011;1714;49.756;8.610;2022-07-12T11:07:43;1.02;;;0.50;;
3401;SDS011;1714;49.756;8.610;2022-07-12T11:17:48;1.05;;;0.30;;
3401;SDS011;1714;49.756;8.610;2022-07-12T11:27:52;0.50;;;0.40;;
3401;SDS011;1714;49.756;8.610;2022-07-12T11:37:55;0.55;;;0.45;;
3401;SDS011;1714;49.756;8.610;2022-07-12T11:47:59;1.92;;;0.50;;
3401;SDS011;1714;49.756;8.610;2022-07-12T11:58:04;1.90;;;0.60;;
3401;SDS011;1714;49.756;8.610;2022-07-12T12:08:07;2.83;;;0.55;;
3401;SDS011;1714;49.756;8.610;2022-07-12T12:28:14;2.13;;;0.40;;
3401;SDS011;1714;49.756;8.610;2022-07-12T12:38:17;2.25;;;0.70;;
3401;SDS011;1714;49.756;8.610;2022-07-12T12:48:19;0.63;;;0.50;;
3401;SDS011;1714;49.756;8.610;2022-07-12T12:58:25;0.73;;;0.40;;
3401;SDS011;1714;49.756;8.610;2022-07-12T13:08:31;0.50;;;0.50;;
3401;SDS011;1714;49.756;8.610;2022-07-12T13:18:33;0.30;;;0.30;;
3401;SDS011;1714;49.756;8.610;2022-07-12T13:28:36;0.40;;;0.30;;
3401;SDS011;1714;49.756;8.610;2022-07-12T13:38:38;0.25;;;0.25;;
3401;SDS011;1714;49.756;8.610;2022-07-12T13:48:41;0.43;;;0.30;;
3401;SDS011;1714;49.756;8.610;2022-07-12T13:58:45;0.82;;;0.40;;
3401;SDS011;1714;49.756;8.610;2022-07-12T14:08:47;0.32;;;0.32;;
3401;SDS011;1714;49.756;8.610;2022-07-12T14:18:52;0.93;;;0.50;;
3401;SDS011;1714;49.756;8.610;2022-07-12T14:28:57;1.63;;;0.38;;
3401;SDS011;1714;49.756;8.610;2022-07-12T14:39:01;0.40;;;0.32;;
3401;SDS011;1714;49.756;8.610;2022-07-12T14:49:03;0.40;;;0.40;;
3401;SDS011;1714;49.756;8.610;2022-07-12T14:59:06;0.45;;;0.40;;
3401;SDS011;1714;49.756;8.610;2022-07-12T15:09:08;2.90;;;0.40;;
3401;SDS011;1714;49.756;8.610;2022-07-12T15:19:11;0.40;;;0.30;;
3401;SDS011;1714;49.756;8.610;2022-07-12T15:29:18;0.88;;;0.40;;
3401;SDS011;1714;49.756;8.610;2022-07-12T15:39:20;2.00;;;0.28;;
3401;SDS011;1714;49.756;8.610;2022-07-12T15:49:24;2.53;;;0.30;;
3401;SDS011;1714;49.756;8.610;2022-07-12T15:59:25;1.45;;;0.50;;
3401;SDS011;1714;49.756;8.610;2022-07-12T16:09:28;1.02;;;0.55;;
3401;SDS011;1714;49.756;8.610;2022-07-12T16:19:31;2.75;;;0.35;;
3401;SDS011;1714;49.756;8.610;2022-07-12T16:29:33;1.85;;;0.60;;
3401;SDS011;1714;49.756;8.610;2022-07-12T16:39:35;1.67;;;0.40;;
3401;SDS011;1714;49.756;8.610;2022-07-12T16:49:38;2.08;;;0.50;;
3401;SDS011;1714;49.756;8.610;2022-07-12T16:59:40;1.83;;;0.93;;
3401;SDS011;1714;49.756;8.610;2022-07-12T17:09:42;2.25;;;0.50;;
3401;SDS011;1714;49.756;8.610;2022-07-12T17:19:44;1.00;;;0.50;;
3401;SDS011;1714;49.756;8.610;2022-07-12T17:29:47;0.47;;;0.43;;
3401;SDS011;1714;49.756;8.610;2022-07-12T17:39:48;1.55;;;0.50;;
3401;SDS011;1714;49.756;8.610;2022-07-12T17:49:51;3.70;;;0.75;;
3401;SDS011;1714;49.756;8.610;2022-07-12T17:59:52;1.67;;;0.50;;
3401;SDS011;1714;49.756;8.610;2022-07-12T18:09:54;0.40;;;0.40;;
3401;SDS011;1714;49.756;8.610;2022-07-12T18:19:59;2.38;;;0.75;;
3401;SDS011;1714;49.756;8.610;2022-07-12T18:30:03;3.70;;;0.63;;
3401;SDS011;1714;49.756;8.610;2022-07-12T18:40:07;1.67;;;0.50;;
3401;SDS011;1714;49.756;8.610;2022-07-12T18:50:09;3.83;;;0.40;;
3401;SDS011;1714;49.756;8.610;2022-07-12T19:00:20;2.83;;;0.80;;
3401;SDS011;1714;49.756;8.610;2022-07-12T19:10:22;3.55;;;0.77;;
3401;SDS011;1714;49.756;8.610;2022-07-12T19:20:24;1.38;;;0.80;;
3401;SDS011;1714;49.756;8.610;2022-07-12T19:30:26;2.03;;;0.80;;
3401;SDS011;1714;49.756;8.610;2022-07-12T19:40:28;0.82;;;0.63;;
3401;SDS011;1714;49.756;8.610;2022-07-12T19:50:31;2.30;;;0.80;;
3401;SDS011;1714;49.756;8.610;2022-07-12T20:00:32;0.80;;;0.80;;
3401;SDS011;1714;49.756;8.610;2022-07-12T20:10:35;4.10;;;1.05;;
3401;SDS011;1714;49.756;8.610;2022-07-12T20:20:39;0.65;;;0.65;;
3401;SDS011;1714;49.756;8.610;2022-07-12T20:30:45;3.05;;;0.77;;
3401;SDS011;1714;49.756;8.610;2022-07-12T20:40:53;2.25;;;1.40;;
3401;SDS011;1714;49.756;8.610;2022-07-12T20:51:12;3.83;;;0.88;;
3401;SDS011;1714;49.756;8.610;2022-07-12T21:01:14;1.23;;;0.85;;
3401;SDS011;1714;49.756;8.610;2022-07-12T21:11:17;2.40;;;0.95;;
3401;SDS011;1714;49.756;8.610;2022-07-12T21:21:20;5.25;;;1.08;;
3401;SDS011;1714;49.756;8.610;2022-07-12T21:31:27;1.63;;;0.73;;
3401;SDS011;1714;49.756;8.610;2022-07-12T21:41:33;1.48;;;0.50;;
3401;SDS011;1714;49.756;8.610;2022-07-12T21:51:35;2.70;;;0.60;;
3401;SDS011;1714;49.756;8.610;2022-07-12T22:01:38;2.40;;;0.70;;
3401;SDS011;1714;49.756;8.610;2022-07-12T22:11:42;2.55;;;0.70;;
3401;SDS011;1714;49.756;8.610;2022-07-12T22:21:44;4.57;;;1.00;;
3401;SDS011;1714;49.756;8.610;2022-07-12T22:31:47;0.50;;;0.50;;
3401;SDS011;1714;49.756;8.610;2022-07-12T22:41:51;3.10;;;0.60;;
3401;SDS011;1714;49.756;8.610;2022-07-12T22:51:53;1.65;;;0.85;;
3401;SDS011;1714;49.756;8.610;2022-07-12T23:01:57;3.28;;;0.50;;
3401;SDS011;1714;49.756;8.610;2022-07-12T23:12:00;0.93;;;0.65;;
3401;SDS011;1714;49.756;8.610;2022-07-12T23:22:03;5.65;;;1.00;;
3401;SDS011;1714;49.756;8.610;2022-07-12T23:32:06;0.50;;;0.50;;
3401;SDS011;1714;49.756;8.610;2022-07-12T23:42:07;1.83;;;0.98;;
3401;SDS011;1714;49.756;8.610;2022-07-12T23:52:09;2.38;;;1.10;;
